AUA403 LOWW-LEBL
Flight info
| Callsign | AUA403 |
|---|---|
| Flight time | N/A |
| Altitude | 38000 |
| Route | OSPEN DCT ABRUK DCT SETAL DCT DETSA DCT GEKBA DCT VAMTU DCT KOLON DCT GANGU DCT PADKO DCT DIVKO DCT NILDU N975 BISBA |
| Aircraft | A320/M-SDE3FGHIRWY/LB1 |
Departure
| Time | 2026-05-06 13:54 |
|---|---|
| Airport | Vienna International Airport (LOWW) |
Arrival
| Time | N/A |
|---|---|
| Airport | Josep Tarradellas Barcelona-El Prat Airport (LEBL) |
| Time | Latitude | Longitude | Altitude | Speed | Heading |
|---|---|---|---|---|---|
| 2026-05-06 13:29 | 48.11842 | 16.56929 | 610 ft | 0 kts | 206° |
| 2026-05-06 13:46 | 48.11843 | 16.56930 | 609 ft | 1 kts | 206° |
| 2026-05-06 13:46 | 48.11864 | 16.56945 | 624 ft | 4 kts | 206° |
| 2026-05-06 13:46 | 48.11884 | 16.56959 | 616 ft | 4 kts | 194° |
| 2026-05-06 13:46 | 48.11908 | 16.56959 | 612 ft | 4 kts | 148° |
| 2026-05-06 13:47 | 48.11923 | 16.56933 | 616 ft | 4 kts | 116° |
| 2026-05-06 13:47 | 48.11927 | 16.56923 | 616 ft | 0 kts | 116° |
| 2026-05-06 13:49 | 48.11918 | 16.56949 | 617 ft | 7 kts | 116° |
| 2026-05-06 13:49 | 48.11891 | 16.57029 | 610 ft | 10 kts | 116° |
| 2026-05-06 13:50 | 48.11858 | 16.57133 | 616 ft | 12 kts | 113° |
| 2026-05-06 13:50 | 48.11840 | 16.57258 | 621 ft | 7 kts | 114° |
| 2026-05-06 13:50 | 48.11817 | 16.57331 | 617 ft | 9 kts | 116° |
| 2026-05-06 13:50 | 48.11812 | 16.57423 | 608 ft | 9 kts | 73° |
| 2026-05-06 13:51 | 48.11829 | 16.57510 | 610 ft | 8 kts | 74° |
| 2026-05-06 13:51 | 48.11842 | 16.57583 | 616 ft | 7 kts | 74° |
| 2026-05-06 13:51 | 48.11853 | 16.57641 | 614 ft | 5 kts | 74° |
| 2026-05-06 13:51 | 48.11861 | 16.57691 | 609 ft | 6 kts | 82° |
| 2026-05-06 13:52 | 48.11850 | 16.57796 | 610 ft | 12 kts | 113° |
| 2026-05-06 13:52 | 48.11794 | 16.57893 | 615 ft | 13 kts | 152° |
| 2026-05-06 13:52 | 48.11757 | 16.57911 | 612 ft | 0 kts | 163° |
| 2026-05-06 13:53 | 48.11693 | 16.57940 | 610 ft | 33 kts | 163° |
| 2026-05-06 13:53 | 48.11233 | 16.58132 | 616 ft | 101 kts | 164° |
| 2026-05-06 13:53 | 48.10379 | 16.58494 | 609 ft | 152 kts | 164° |
| 2026-05-06 13:53 | 48.09267 | 16.58958 | 920 ft | 173 kts | 166° |
| 2026-05-06 13:54 | 48.08070 | 16.59425 | 1470 ft | 184 kts | 169° |
| 2026-05-06 13:54 | 48.07229 | 16.59743 | 1858 ft | 191 kts | 171° |
| 2026-05-06 13:54 | 48.05501 | 16.59646 | 2868 ft | 187 kts | 202° |
| 2026-05-06 13:54 | 48.04769 | 16.58974 | 3362 ft | 187 kts | 220° |
| 2026-05-06 13:55 | 48.03993 | 16.57411 | 4092 ft | 189 kts | 237° |
| 2026-05-06 13:55 | 48.03346 | 16.55669 | 4687 ft | 195 kts | 233° |
| 2026-05-06 13:55 | 48.02524 | 16.54017 | 5167 ft | 204 kts | 224° |
| 2026-05-06 13:55 | 48.01452 | 16.52460 | 5492 ft | 227 kts | 221° |
| 2026-05-06 13:56 | 48.00232 | 16.50793 | 6021 ft | 245 kts | 221° |
| 2026-05-06 13:56 | 47.98972 | 16.49030 | 6814 ft | 251 kts | 222° |
| 2026-05-06 13:56 | 47.97715 | 16.47201 | 7678 ft | 255 kts | 224° |
| 2026-05-06 13:56 | 47.96504 | 16.45245 | 8561 ft | 259 kts | 233° |
| 2026-05-06 13:57 | 47.95679 | 16.42828 | 9409 ft | 266 kts | 250° |
| 2026-05-06 13:57 | 47.95183 | 16.40148 | 10202 ft | 271 kts | 252° |
| 2026-05-06 13:57 | 47.94673 | 16.37315 | 10505 ft | 294 kts | 252° |
| 2026-05-06 13:57 | 47.94168 | 16.34503 | 10860 ft | 310 kts | 252° |
| 2026-05-06 13:58 | 47.93612 | 16.31381 | 11233 ft | 315 kts | 252° |
| 2026-05-06 13:58 | 47.93045 | 16.28199 | 11557 ft | 319 kts | 252° |
| 2026-05-06 13:58 | 47.92465 | 16.24978 | 11883 ft | 323 kts | 252° |
| 2026-05-06 13:58 | 47.91881 | 16.21752 | 12313 ft | 322 kts | 252° |
| 2026-05-06 13:59 | 47.91298 | 16.18539 | 12718 ft | 322 kts | 252° |
| 2026-05-06 13:59 | 47.90716 | 16.15348 | 13400 ft | 324 kts | 252° |
| 2026-05-06 13:59 | 47.90115 | 16.12054 | 14083 ft | 328 kts | 252° |
| 2026-05-06 13:59 | 47.89511 | 16.08762 | 14748 ft | 331 kts | 253° |
| 2026-05-06 14:00 | 47.88900 | 16.05426 | 15332 ft | 336 kts | 253° |
| 2026-05-06 14:00 | 47.88282 | 16.02053 | 16035 ft | 338 kts | 253° |
| 2026-05-06 14:00 | 47.87498 | 15.98752 | 16708 ft | 339 kts | 243° |
| 2026-05-06 14:00 | 47.86235 | 15.95793 | 17342 ft | 342 kts | 233° |
| 2026-05-06 14:01 | 47.84820 | 15.92930 | 17998 ft | 344 kts | 233° |
| 2026-05-06 14:01 | 47.83392 | 15.90033 | 18511 ft | 349 kts | 233° |
| 2026-05-06 14:01 | 47.81952 | 15.87117 | 19037 ft | 351 kts | 233° |
| 2026-05-06 14:01 | 47.80521 | 15.84221 | 19642 ft | 353 kts | 233° |
| 2026-05-06 14:02 | 47.79057 | 15.81270 | 20201 ft | 356 kts | 233° |
| 2026-05-06 14:02 | 47.77573 | 15.78287 | 20761 ft | 359 kts | 233° |
| 2026-05-06 14:02 | 47.76082 | 15.75299 | 21400 ft | 360 kts | 232° |
| 2026-05-06 14:02 | 47.74592 | 15.72324 | 22204 ft | 356 kts | 232° |
| 2026-05-06 14:03 | 47.73108 | 15.69362 | 22723 ft | 360 kts | 232° |
| 2026-05-06 14:03 | 47.71604 | 15.66361 | 23193 ft | 365 kts | 232° |
| 2026-05-06 14:03 | 47.70086 | 15.63330 | 23704 ft | 366 kts | 232° |
| 2026-05-06 14:03 | 47.68564 | 15.60293 | 24162 ft | 368 kts | 232° |
| 2026-05-06 14:04 | 47.67031 | 15.57238 | 24612 ft | 370 kts | 232° |
| 2026-05-06 14:04 | 47.65488 | 15.54169 | 25009 ft | 373 kts | 232° |
| 2026-05-06 14:04 | 47.63928 | 15.51070 | 25421 ft | 374 kts | 232° |
| 2026-05-06 14:04 | 47.62367 | 15.47973 | 25807 ft | 375 kts | 232° |
| 2026-05-06 14:05 | 47.60796 | 15.44861 | 26163 ft | 378 kts | 232° |
| 2026-05-06 14:05 | 47.59216 | 15.41730 | 26479 ft | 382 kts | 233° |
| 2026-05-06 14:05 | 47.57641 | 15.38607 | 26821 ft | 385 kts | 233° |
| 2026-05-06 14:05 | 47.56031 | 15.35416 | 27185 ft | 387 kts | 233° |
| 2026-05-06 14:06 | 47.54414 | 15.32221 | 27565 ft | 389 kts | 233° |
| 2026-05-06 14:06 | 47.52783 | 15.29007 | 27954 ft | 391 kts | 233° |
| 2026-05-06 14:06 | 47.51147 | 15.25784 | 28318 ft | 392 kts | 232° |
| 2026-05-06 14:06 | 47.49503 | 15.22553 | 28622 ft | 394 kts | 233° |
| 2026-05-06 14:07 | 47.47846 | 15.19306 | 28861 ft | 397 kts | 232° |
| 2026-05-06 14:07 | 47.46180 | 15.16045 | 29249 ft | 398 kts | 232° |
| 2026-05-06 14:07 | 47.44511 | 15.12778 | 29630 ft | 398 kts | 232° |
| 2026-05-06 14:07 | 47.42839 | 15.09510 | 29945 ft | 400 kts | 232° |
| 2026-05-06 14:08 | 47.41155 | 15.06225 | 30153 ft | 403 kts | 232° |
| 2026-05-06 14:08 | 47.39490 | 15.02879 | 30424 ft | 405 kts | 236° |
| 2026-05-06 14:08 | 47.38153 | 14.99221 | 30674 ft | 407 kts | 245° |
| 2026-05-06 14:08 | 47.37231 | 14.95255 | 30954 ft | 409 kts | 251° |
| 2026-05-06 14:09 | 47.36433 | 14.91220 | 31200 ft | 410 kts | 251° |
| 2026-05-06 14:09 | 47.35632 | 14.87196 | 31569 ft | 408 kts | 251° |
| 2026-05-06 14:09 | 47.34833 | 14.83204 | 31997 ft | 404 kts | 251° |
| 2026-05-06 14:09 | 47.34038 | 14.79248 | 32426 ft | 401 kts | 251° |
| 2026-05-06 14:10 | 47.33249 | 14.75319 | 32851 ft | 398 kts | 251° |
| 2026-05-06 14:10 | 47.32465 | 14.71423 | 33290 ft | 395 kts | 251° |
| 2026-05-06 14:10 | 47.31717 | 14.67719 | 33697 ft | 392 kts | 251° |
| 2026-05-06 14:10 | 47.30939 | 14.63877 | 34091 ft | 389 kts | 250° |
| 2026-05-06 14:11 | 47.30164 | 14.60066 | 34388 ft | 388 kts | 251° |
| 2026-05-06 14:11 | 47.29390 | 14.56261 | 34648 ft | 388 kts | 251° |
| 2026-05-06 14:11 | 47.28614 | 14.52447 | 34826 ft | 390 kts | 251° |
| 2026-05-06 14:11 | 47.27831 | 14.48612 | 35024 ft | 391 kts | 251° |
| 2026-05-06 14:12 | 47.27046 | 14.44767 | 35214 ft | 392 kts | 251° |
| 2026-05-06 14:12 | 47.26271 | 14.40975 | 35418 ft | 392 kts | 251° |
| 2026-05-06 14:12 | 47.25486 | 14.37130 | 35632 ft | 393 kts | 251° |
| 2026-05-06 14:12 | 47.24695 | 14.33277 | 35840 ft | 393 kts | 251° |
| 2026-05-06 14:13 | 47.23902 | 14.29428 | 36060 ft | 393 kts | 251° |
| 2026-05-06 14:13 | 47.23107 | 14.25585 | 36251 ft | 393 kts | 250° |
| 2026-05-06 14:13 | 47.22307 | 14.21736 | 36448 ft | 393 kts | 250° |
| 2026-05-06 14:13 | 47.21509 | 14.17894 | 36632 ft | 394 kts | 250° |
| 2026-05-06 14:14 | 47.20710 | 14.14043 | 36889 ft | 393 kts | 250° |
| 2026-05-06 14:14 | 47.19916 | 14.10206 | 37138 ft | 392 kts | 250° |
| 2026-05-06 14:14 | 47.19121 | 14.06382 | 37313 ft | 392 kts | 250° |
| 2026-05-06 14:14 | 47.18320 | 14.02551 | 37517 ft | 392 kts | 250° |
| 2026-05-06 14:15 | 47.17519 | 13.98727 | 37679 ft | 392 kts | 250° |
| 2026-05-06 14:15 | 47.16714 | 13.94901 | 37842 ft | 391 kts | 250° |
| 2026-05-06 14:15 | 47.15097 | 13.87239 | 37862 ft | 395 kts | 250° |
| 2026-05-06 14:16 | 47.13478 | 13.79579 | 37863 ft | 396 kts | 250° |
| 2026-05-06 14:16 | 47.11892 | 13.72069 | 37862 ft | 396 kts | 250° |
| 2026-05-06 14:17 | 47.10250 | 13.64343 | 37860 ft | 397 kts | 250° |
| 2026-05-06 14:17 | 47.08596 | 13.56616 | 37849 ft | 397 kts | 250° |
| 2026-05-06 14:18 | 47.06940 | 13.48877 | 37858 ft | 397 kts | 250° |
| 2026-05-06 14:18 | 47.05275 | 13.41133 | 37844 ft | 398 kts | 250° |
| 2026-05-06 14:19 | 47.03601 | 13.33387 | 37849 ft | 398 kts | 250° |
| 2026-05-06 14:19 | 47.01924 | 13.25645 | 37846 ft | 400 kts | 251° |
| 2026-05-06 14:20 | 47.00236 | 13.17861 | 37852 ft | 401 kts | 250° |
| 2026-05-06 14:20 | 46.98531 | 13.10072 | 37852 ft | 402 kts | 250° |
| 2026-05-06 14:21 | 46.96818 | 13.02265 | 37849 ft | 403 kts | 250° |
| 2026-05-06 14:21 | 46.95101 | 12.94463 | 37849 ft | 403 kts | 250° |
| 2026-05-06 14:22 | 46.93394 | 12.86704 | 37861 ft | 403 kts | 250° |
| 2026-05-06 14:22 | 46.91668 | 12.78887 | 37860 ft | 404 kts | 250° |
| 2026-05-06 14:23 | 46.89929 | 12.71070 | 37890 ft | 404 kts | 249° |
| 2026-05-06 14:23 | 46.88178 | 12.63271 | 37867 ft | 403 kts | 250° |
| 2026-05-06 14:24 | 46.86431 | 12.55501 | 37885 ft | 403 kts | 249° |
| 2026-05-06 14:24 | 46.84680 | 12.47729 | 37911 ft | 403 kts | 249° |
| 2026-05-06 14:25 | 46.82925 | 12.39949 | 37912 ft | 403 kts | 250° |
| 2026-05-06 14:25 | 46.81170 | 12.32180 | 37923 ft | 402 kts | 249° |
| 2026-05-06 14:26 | 46.78631 | 12.24996 | 37954 ft | 398 kts | 232° |
| 2026-05-06 14:26 | 46.75279 | 12.18559 | 37865 ft | 398 kts | 232° |
| 2026-05-06 14:27 | 46.71930 | 12.12139 | 37855 ft | 398 kts | 232° |
| 2026-05-06 14:27 | 46.68604 | 12.05757 | 37855 ft | 398 kts | 232° |
| 2026-05-06 14:28 | 46.65252 | 11.99339 | 37862 ft | 398 kts | 232° |
| 2026-05-06 14:28 | 46.61934 | 11.92995 | 37862 ft | 398 kts | 232° |
| 2026-05-06 14:29 | 46.58576 | 11.86601 | 37878 ft | 397 kts | 232° |
| 2026-05-06 14:29 | 46.55208 | 11.80218 | 37886 ft | 397 kts | 232° |
| 2026-05-06 14:30 | 46.51863 | 11.73890 | 37898 ft | 396 kts | 232° |
| 2026-05-06 14:30 | 46.48488 | 11.67505 | 37896 ft | 396 kts | 232° |
| 2026-05-06 14:31 | 46.45151 | 11.61218 | 37903 ft | 396 kts | 232° |
| 2026-05-06 14:31 | 46.41785 | 11.54894 | 37897 ft | 395 kts | 232° |
| 2026-05-06 14:32 | 46.38425 | 11.48596 | 37890 ft | 395 kts | 231° |
| 2026-05-06 14:32 | 46.35066 | 11.42299 | 37896 ft | 395 kts | 232° |
| 2026-05-06 14:33 | 46.31708 | 11.36021 | 37902 ft | 394 kts | 231° |
| 2026-05-06 14:33 | 46.28348 | 11.29763 | 37899 ft | 393 kts | 231° |
| 2026-05-06 14:34 | 46.24982 | 11.23513 | 38011 ft | 394 kts | 231° |
| 2026-05-06 14:34 | 46.21617 | 11.17263 | 37992 ft | 394 kts | 232° |
| 2026-05-06 14:35 | 46.18251 | 11.11021 | 37976 ft | 394 kts | 231° |
| 2026-05-06 14:35 | 46.14900 | 11.04835 | 37958 ft | 394 kts | 231° |
| 2026-05-06 14:36 | 46.11523 | 10.98604 | 37953 ft | 395 kts | 231° |
| 2026-05-06 14:36 | 46.08137 | 10.92369 | 37946 ft | 395 kts | 231° |
| 2026-05-06 14:37 | 46.04736 | 10.86153 | 37937 ft | 395 kts | 231° |
| 2026-05-06 14:37 | 46.01341 | 10.79941 | 37931 ft | 395 kts | 231° |
| 2026-05-06 14:38 | 45.97951 | 10.73728 | 37933 ft | 395 kts | 231° |
| 2026-05-06 14:38 | 45.94561 | 10.67543 | 37925 ft | 393 kts | 231° |
| 2026-05-06 14:39 | 45.91177 | 10.61394 | 37914 ft | 392 kts | 231° |
| 2026-05-06 14:39 | 45.87790 | 10.55248 | 37906 ft | 392 kts | 231° |
| 2026-05-06 14:40 | 45.84408 | 10.49115 | 37907 ft | 391 kts | 231° |
| 2026-05-06 14:40 | 45.81024 | 10.43007 | 37907 ft | 390 kts | 231° |
| 2026-05-06 14:41 | 45.77640 | 10.36909 | 37910 ft | 391 kts | 231° |
| 2026-05-06 14:41 | 45.74255 | 10.30817 | 37906 ft | 390 kts | 231° |
| 2026-05-06 14:42 | 45.71446 | 10.25773 | 37908 ft | 390 kts | 231° |
| 2026-05-06 14:42 | 45.67512 | 10.18724 | 37909 ft | 389 kts | 231° |
| 2026-05-06 14:43 | 45.64685 | 10.13675 | 37901 ft | 388 kts | 231° |
| 2026-05-06 14:43 | 45.61316 | 10.07671 | 37890 ft | 387 kts | 231° |
| 2026-05-06 14:44 | 45.57954 | 10.01679 | 37882 ft | 386 kts | 231° |
| 2026-05-06 14:45 | 45.52941 | 9.92768 | 37857 ft | 385 kts | 230° |